Terminal Aerodrome Forecast
Issued by NWS

Home | Current Version | Previous Version | Graphics & Text | Print | Product List | Glossary On
Versions: 1 2 3 4 5 6 7 8 9 10 11 12 13 14 15 16
000
FTUS43 KMPX 151700
TAFAXN
TAF
KAXN 151730Z 1518/1618 36019G27KT 4SM -RA BR OVC006
      TEMPO 1518/1520 2SM -FZRA BR OVC003
     FM152000 35022G32KT 5SM -SN BR OVC009
     FM160400 35019G26KT P6SM OVC015
     FM161700 34014G21KT P6SM BKN020=

USA.gov is the U.S. government's official web portal to all federal, state and local government web resources and services.